Tiempo atmosférico en la estación meteorológica de Rascafría, Madrid (1159 m.)



Fecha
DESCASC
Temp. máxima en grados centígrados (hora)
DESCASC
Temp. mínima en grados centígrados (hora)
DESCASC
Temp. media en grados centígrados
DESCASC
Racha de viento máxima en m/sg (hora)
DESCASC
Velocidad máxima media en intervalos de 10 minutos(hora)
DESCASC
Precipitaciones diarias en mm
DESCASC
Precipitaciones de 00:00 a 06:00 en mm
DESCASC
Precipitaciones de 06:00 a 12:00 en mm
DESCASC
Precipitaciones de 12:00 a 18:00 en mm
DESCASC
Precipitaciones de 18:00 a 24:00 en mm
DESCASC
22-04-2019 16 (15:20) 5.3 (07:00) 10.7 5.56 (17:10) 2.22 (13:50) 0 0 0 0 0
21-04-2019 10.9 (13:20) 2.2 (05:40) 6.5 7.5 (13:40) 3.33 (13:40) 0 0 0 0 0
20-04-2019 18.2 (18:20) 4.7 (07:20) 11.5 13.61 (02:20) 5.28 (01:40) 0.2 0 0.2 0 0
19-04-2019 9.9 (21:30) 5 (02:30) 7.4 11.11 (22:00) 4.72 (21:30) 8.6 2.4 1 4.2 1
18-04-2019 10.3 (02:10) 5.8 (00:00) 8.1 9.72 (02:50) 2.5 (03:00) 25.4 13.6 4.4 3.6 3.8
17-04-2019 19.1 (18:30) 4 (00:00) 11.6 10.83 (19:40) 4.17 (19:30) 1 0 0 0 1
16-04-2019 17.8 (16:10) -0.2 (00:00) 8.8 8.06 (14:50) 3.89 (17:00) 0 0 0 0 0
15-04-2019 21.6 (16:20) 4.6 (00:00) 13.1 12.78 (19:00) 5.56 (19:00) 0.8 0 0 0 0.8
14-04-2019 20.7 (16:20) 4.2 (00:00) 12.5 7.5 (12:10) 3.06 (12:30) 0 0 0 0 0
13-04-2019 18.6 (16:40) -4.3 (-00:0) 7.2 6.67 (17:20) 2.5 (15:50) 0 0 0 0 0
12-04-2019 13.7 (17:10) -2.1 (-00:0) 5.8 8.61 (14:10) 3.89 (14:20) 1 0 1 0 0
11-04-2019 11 (18:00) -1.4 (-00:0) 4.8 8.33 (16:30) 3.33 (16:30) 0 0 0 0 0
10-04-2019 9.2 (16:20) 2.5 (00:00) 5.8 13.89 (00:10) 4.72 (02:30) 11.4 5 6 0.4 0
09-04-2019 7.5 (17:10) 1.6 (00:00) 4.6 11.67 (18:00) 5 (18:30) 12.4 0 0.8 6.8 4.8
08-04-2019 12.1 (16:10) 1.6 (00:00) 6.9 8.61 (21:30) 3.06 (21:30) 10.8 2.2 4.6 0.2 3.8
07-04-2019 8.8 (15:40) 0.5 (00:00) 4.7 16.67 (00:40) 7.5 (01:00) 17.8 1.4 2.2 5.8 8.4
06-04-2019 5.4 (16:10) 0 (00:00) 2.7 18.89 (22:00) 7.5 (22:00) 10 0.8 3 4 2.2
05-04-2019 6.2 (12:20) -0.8 (-00:0) 2.7 8.33 (13:30) 3.33 (13:30) 3.4 0 1 1.6 0.8
04-04-2019 11.9 (16:30) -2.7 (-00:0) 4.6 9.17 (15:30) 3.61 (15:50) 0 0 0 0 0
03-04-2019 9.7 (17:10) 0.8 (00:00) 5.2 13.61 (17:30) 5 (18:50) 0 0 0 0 0
02-04-2019 15.7 (17:30) 2.1 (00:00) 8.9 10.28 (18:40) 3.33 (13:20) 0.2 0 0 0 0.2
01-04-2019 12.6 (16:40) 4.9 (00:00) 8.8 3.33 (20:50) 1.39 (11:20) 0.6 0.2 0.2 0 0.2
31-03-2019 11.3 (12:00) -0.9 (-00:0) 5.2 4.17 (15:40) 1.67 (15:30) 0.4 0 0 0 0.4
30-03-2019 15.5 (14:00) -3 (-00:0) 6.3 5.83 (14:00) 2.78 (13:30) 0 0 0 0 0
29-03-2019 14.9 (16:00) -3.8 (-00:0) 5.5 7.5 (15:20) 3.33 (17:50) 0 0 0 0 0
28-03-2019 17.8 (17:00) -3.8 (-00:0) 7 6.39 (14:00) 2.5 (14:00) 0 0 0 0 0
27-03-2019 18.1 (15:50) -4.2 (-00:0) 7 6.67 (17:30) 2.78 (13:50) 0 0 0 0 0
26-03-2019 18 (15:50) -3.6 (-00:0) 7.2 8.61 (15:30) 3.89 (14:30) 0 0 0 0 0
25-03-2019 18.7 (16:00) -1.7 (-00:0) 8.5 7.22 (11:40) 3.33 (14:40) 0 0 0 0 0

Gráficas

Temp. máximas Temp. mínimas Temp. medias Precipitaciones Rachas de viento máximas Velocidades máximas media en intervalos de 10 minutos

Datos horarios

Fecha y hora oficial Temperatura (ºC) Velocidad del viento (km/h) Dirección del viento Racha (km/h) Dirección de racha Precipitación (mm) Presión (hPa) Tendencia (hPa) Humedad (%)
2019-04-23 23:00:00 2.4 3 Sudoeste 25 Oeste 0 -- -- 87
2019-04-23 22:00:00 2.5 8 Oeste 28 Oeste 0.2 -- -- 84
2019-04-23 21:00:00 2.9 11 Oeste 31 Oeste 1 -- -- 88
2019-04-23 20:00:00 2.8 0 Calma 10 Sur 0.4 -- -- 91
2019-04-23 19:00:00 2.5 3 Sudeste 28 Noroeste 2.6 -- -- 88
2019-04-23 18:00:00 5.6 10 Oeste 31 Oeste 0.2 -- -- 71
2019-04-23 17:00:00 9.6 6 Sudoeste 25 Sur 0 -- -- 47
2019-04-23 16:00:00 11.7 10 Sur 25 Sudeste 0 -- -- 42
2019-04-23 15:00:00 10.9 9 Sur 24 Sudoeste 0 -- -- 43
2019-04-23 14:00:00 8.5 9 Sur 24 Sudoeste 0 -- -- 59
2019-04-23 13:00:00 8.3 5 Sur 18 Sur 0 -- -- 65
2019-04-23 12:00:00 7.8 9 Sudeste 18 Sudeste 0 -- -- 68
2019-04-23 11:00:00 8.3 4 Sur 17 Sur 0 -- -- 75
2019-04-23 10:00:00 7.7 3 Sudoeste 10 Sur 0 -- -- 85
2019-04-23 09:00:00 7.4 4 Sudoeste 23 Sur 0 -- -- 80
2019-04-23 08:00:00 7.7 4 Sur 21 Sudeste 0 -- -- 74
2019-04-23 07:00:00 7.1 3 Oeste 21 Sudeste 0 -- -- 75
2019-04-23 06:00:00 7.1 3 Oeste 10 Nordeste 0 -- -- 81
2019-04-23 05:00:00 6.9 3 Norte 15 Este 0 -- -- 84
2019-04-23 04:00:00 6.4 2 Sudoeste 5 Sur 0 -- -- 93
2019-04-23 03:00:00 6.1 0 Calma 4 Sudoeste 0 -- -- 93
2019-04-23 02:00:00 5.5 0 Calma 4 Oeste 0 -- -- 92
2019-04-23 01:00:00 5.6 0 Calma 6 Oeste 0 -- -- 90
2019-04-23 00:00:00 6.6 0 Calma 3 Sur 0 -- -- 87
2019-04-22 23:00:00 7 0 Calma 3 Sur 0 -- -- 86
2019-04-22 22:00:00 7.2 2 Sur 5 Oeste 0 -- -- 84
2019-04-22 21:00:00 9.5 2 Norte 14 Nordeste 0 -- -- 77
2019-04-22 20:00:00 12.5 4 Nordeste 14 Norte 0 -- -- 64
2019-04-22 19:00:00 12.4 5 Sudeste 17 Oeste 0 -- -- 59
2019-04-22 18:00:00 12.6 3 Norte 20 Oeste 0 -- -- 54
2019-04-22 17:00:00 13.5 6 Noroeste 19 Noroeste 0 -- -- 53
2019-04-22 16:00:00 13.8 4 Sudoeste 17 Norte 0 -- -- 52
2019-04-22 15:00:00 15.5 5 Sudeste 15 Este 0 -- -- 47
2019-04-22 14:00:00 13.1 6 Este 17 Este 0 -- -- 53
2019-04-22 13:00:00 11.2 5 Nordeste 15 Noroeste 0 -- -- 61
2019-04-22 12:00:00 9.2 2 Norte 7 Norte 0 -- -- 65
2019-04-22 11:00:00 8.3 2 Noroeste 5 Este 0 -- -- 67
2019-04-22 10:00:00 7.5 0 Calma 4 Sudeste 0 -- -- 77
2019-04-22 09:00:00 6.2 0 Calma 3 Oeste 0 -- -- 86
2019-04-22 08:00:00 5.3 0 Calma 3 Oeste 0 -- -- 90
2019-04-22 07:00:00 5.3 0 Calma 3 Sur 0 -- -- 90
2019-04-22 06:00:00 5.5 0 Calma 2 Sur 0 -- -- 88
2019-04-22 05:00:00 5.6 0 Calma 4 Nordeste 0 -- -- 87
2019-04-22 04:00:00 5.5 0 Calma 3 Sur 0 -- -- 86
2019-04-22 03:00:00 5.7 0 Calma 2 Oeste 0 -- -- 85
2019-04-22 02:00:00 5.8 0 Calma 3 Oeste 0 -- -- 84
2019-04-22 01:00:00 5.8 0 Calma 3 Oeste 0 -- -- 84
2019-04-22 00:00:00 6 0 Calma 2 Oeste 0 -- -- 82
2019-04-21 23:00:00 6.2 0 Calma 2 Oeste 0 -- -- 81
2019-04-21 22:00:00 6.6 0 Calma 2 Oeste 0 -- -- 78
2019-04-21 21:00:00 7 0 Calma 9 Este 0 -- -- 73
2019-04-21 20:00:00 7.5 3 Nordeste 13 Nordeste 0 -- -- 70
2019-04-21 19:00:00 8.2 5 Nordeste 24 Este 0 -- -- 65
2019-04-21 18:00:00 8.9 6 Este 22 Este 0 -- -- 63
2019-04-21 17:00:00 9.5 10 Este 19 Este 0 -- -- 61
2019-04-21 16:00:00 8.8 5 Este 24 Este 0 -- -- 65
2019-04-21 15:00:00 9.2 10 Este 24 Este 0 -- -- 64
2019-04-21 14:00:00 10.5 7 Este 27 Este 0 -- -- 59
2019-04-21 13:00:00 10.5 6 Este 24 Nordeste 0 -- -- 57
2019-04-21 12:00:00 9.8 3 Este 13 Nordeste 0 -- -- 60
2019-04-21 11:00:00 8.5 3 Este 8 Norte 0 -- -- 66
2019-04-21 10:00:00 7 0 Calma 4 Sudoeste 0 -- -- 78
2019-04-21 09:00:00 4.8 0 Calma 2 Este 0 -- -- 88
2019-04-21 08:00:00 3.9 0 Calma 4 Oeste 0 -- -- 90
2019-04-21 07:00:00 3.5 0 Calma 4 Sur 0 -- -- 90
2019-04-21 06:00:00 2.5 3 Oeste 6 Noroeste 0 -- -- 93
2019-04-21 05:00:00 3.1 0 Calma 4 Sur 0 -- -- 89
2019-04-21 04:00:00 4.3 0 Calma 4 Sudoeste 0 -- -- 85
2019-04-21 03:00:00 5.2 0 Calma 6 Nordeste 0 -- -- 82
2019-04-21 02:00:00 6.1 3 Sudoeste 8 Sur 0 -- -- 77
2019-04-21 01:00:00 6.4 0 Calma 10 Este 0 -- -- 80
2019-04-21 00:00:00 7.4 2 Sudoeste 5 Oeste 0 -- -- 73
2019-04-20 23:00:00 9.3 0 Calma 10 Sudoeste 0 -- -- 62
2019-04-20 22:00:00 11 2 Norte 7 Noroeste 0 -- -- 60
2019-04-20 21:00:00 11.6 0 Calma 15 Sudeste 0 -- -- 62
2019-04-20 20:00:00 14.7 7 Sur 22 Sudeste 0 -- -- 47
2019-04-20 19:00:00 16.2 7 Este 22 Este 0 -- -- 40
2019-04-20 18:00:00 18 9 Este 21 Sudeste 0 -- -- 34
2019-04-20 17:00:00 17.8 10 Nordeste 21 Nordeste 0 -- -- 33
2019-04-20 16:00:00 17.1 8 Nordeste 24 Este 0 -- -- 36
2019-04-20 15:00:00 17.1 10 Este 22 Nordeste 0 -- -- 36
2019-04-20 14:00:00 18 6 Nordeste 23 Nordeste 0 -- -- 37
2019-04-20 13:00:00 16.3 5 Norte 12 Noroeste 0 -- -- 37
2019-04-20 12:00:00 14.1 2 Sudeste 8 Oeste 0 -- -- 46
2019-04-20 11:00:00 9.9 3 Sur 7 Este 0 -- -- 75
2019-04-20 10:00:00 7.6 0 Calma 5 Sudoeste 0.2 -- -- 82
2019-04-20 09:00:00 5.5 2 Sudoeste 4 Oeste 0 -- -- 90
2019-04-20 08:00:00 4.9 0 Calma 6 Oeste 0 -- -- 90
2019-04-20 07:00:00 5.2 0 Calma 6 Sur 0 -- -- 87
2019-04-20 06:00:00 5.1 0 Calma 6 Noroeste 0 -- -- 87
2019-04-20 05:00:00 6.8 2 Noroeste 18 Este 0 -- -- 77
2019-04-20 04:00:00 9.2 10 Este 42 Este 0 -- -- 60
2019-04-20 03:00:00 9.6 18 Este 49 Este 0 -- -- 60
2019-04-20 02:00:00 9.4 14 Este 41 Este 0 -- -- 63
2019-04-20 01:00:00 9.2 9 Este 35 Este 0 -- -- 63
2019-04-20 00:00:00 9.3 12 Este 38 Este 0 -- -- 65
2019-04-19 23:00:00 9.3 12 Este 39 Este 0.2 -- -- 72
2019-04-19 22:00:00 9.9 14 Este 40 Nordeste 0 -- -- 67
2019-04-19 21:00:00 9.8 13 Este 36 Este 0 -- -- 73
2019-04-19 20:00:00 9 5 Este 26 Este 0 -- -- 83
2019-04-19 19:00:00 6.9 3 Sudoeste 6 Oeste 0.8 -- -- 95
2019-04-19 18:00:00 6.9 0 Calma 4 Sudoeste 2 -- -- 93
2019-04-19 17:00:00 7.6 2 Sur 5 Sudeste 0.6 -- -- 90
2019-04-19 16:00:00 8.5 0 Calma 8 Nordeste 0.6 -- -- 83
2019-04-19 15:00:00 8.7 4 Nordeste 12 Nordeste 0.2 -- -- 79
2019-04-19 14:00:00 8.1 4 Nordeste 14 Este 0.8 -- -- 88
2019-04-19 13:00:00 7.7 3 Nordeste 9 Nordeste 0 -- -- 88
2019-04-19 12:00:00 6.9 2 Este 11 Nordeste 0 -- -- 87
2019-04-19 11:00:00 6.6 3 Nordeste 12 Nordeste 0 -- -- 92
2019-04-19 10:00:00 6 4 Nordeste 9 Este 0.2 -- -- 94
2019-04-19 09:00:00 5.5 4 Nordeste 13 Este 0 -- -- 96
2019-04-19 08:00:00 5.3 2 Nordeste 8 Nordeste 0.4 -- -- 96
2019-04-19 07:00:00 5.3 2 Nordeste 8 Norte 0.4 -- -- 96
2019-04-19 06:00:00 5.2 3 Nordeste 9 Este 0.2 -- -- 96
2019-04-19 05:00:00 5.2 0 Calma 4 Nordeste 0.2 -- -- 96
2019-04-19 04:00:00 5.1 0 Calma 3 Norte 0.4 -- -- 96
2019-04-19 03:00:00 5 0 Calma 2 Oeste 0.6 -- -- 95
2019-04-19 02:00:00 5.1 0 Calma 2 Sudoeste 0.2 -- -- 94
2019-04-19 01:00:00 5.3 0 Calma 4 Norte 0.8 -- -- 92
2019-04-19 00:00:00 5.8 0 Calma 4 Noroeste 1.8 -- -- 92
2019-04-18 23:00:00 6.4 0 Calma 2 Oeste 1.2 -- -- 95
2019-04-18 22:00:00 6.6 0 Calma 2 Sur 0.4 -- -- 94
2019-04-18 21:00:00 6.9 0 Calma 4 Oeste 0.4 -- -- 92
2019-04-18 20:00:00 7.6 2 Sur 4 Sur 0 -- -- 86
2019-04-18 19:00:00 7.9 0 Calma 5 Sudeste 0 -- -- 82
2019-04-18 18:00:00 8.1 0 Calma 5 Nordeste 0.2 -- -- 81
2019-04-18 17:00:00 7.5 3 Sudeste 6 Sudeste 0.2 -- -- 82
2019-04-18 16:00:00 7.6 0 Calma 5 Norte 0 -- -- 77
2019-04-18 15:00:00 7 0 Calma 4 Noroeste 0 -- -- 84
2019-04-18 14:00:00 6.4 0 Calma 6 Oeste 0.2 -- -- 82
2019-04-18 13:00:00 6.6 0 Calma 4 Este 3 -- -- 84
2019-04-18 12:00:00 6.7 0 Calma 5 Nordeste 2.2 -- -- 90
2019-04-18 11:00:00 6.9 0 Calma 8 Norte 0 -- -- 90
2019-04-18 10:00:00 6.5 3 Nordeste 6 Nordeste 0.6 -- -- 94
2019-04-18 09:00:00 6.1 0 Calma 4 Sudeste 0.6 -- -- 94
2019-04-18 08:00:00 5.9 2 Sur 8 Norte 0.8 -- -- 93
2019-04-18 07:00:00 6.1 3 Nordeste 12 Nordeste 0.2 -- -- 90
2019-04-18 06:00:00 6 4 Nordeste 17 Sudeste 1 -- -- 90
2019-04-18 05:00:00 6.1 5 Sur 22 Sur 1.8 -- -- 87
2019-04-18 04:00:00 7 7 Sur 20 Sur 2.2 -- -- 85
2019-04-18 03:00:00 9.6 9 Sudoeste 35 Sur 4 -- -- 85
2019-04-18 02:00:00 10.2 9 Sur 32 Sudoeste 2.4 -- -- 82
2019-04-18 01:00:00 9.6 2 Noroeste 7 Oeste 2.2 -- -- 93
2019-04-18 00:00:00 9.1 2 Noroeste 5 Oeste 0.6 -- -- 93
2019-04-17 23:00:00 9.4 2 Norte 10 Sudoeste 0.2 -- -- 90
2019-04-17 22:00:00 10.9 4 Sudoeste 32 Sur 0.2 -- -- 82
2019-04-17 21:00:00 13.7 8 Sur 24 Sur 0 -- -- 62
2019-04-17 20:00:00 16.7 6 Sudoeste 39 Sudeste 0 -- -- 50
2019-04-17 19:00:00 18.2 12 Sur 38 Sudeste 0 -- -- 44
2019-04-17 18:00:00 18 5 Este 31 Sudeste 0 -- -- 44
2019-04-17 17:00:00 18.3 10 Sudeste 30 Este 0 -- -- 42
2019-04-17 16:00:00 19 7 Sudeste 30 Sudeste 0 -- -- 40
2019-04-17 15:00:00 18 10 Sudeste 23 Sudeste 0 -- -- 40
2019-04-17 14:00:00 16.7 5 Nordeste 17 Nordeste 0 -- -- 49
2019-04-17 13:00:00 13.8 8 Nordeste 15 Nordeste 0 -- -- 61
2019-04-17 12:00:00 9.9 8 Nordeste 19 Nordeste 0 -- -- 74
2019-04-17 11:00:00 9 8 Nordeste 17 Norte 0 -- -- 77
2019-04-17 10:00:00 8.3 9 Nordeste 25 Nordeste 0 -- -- 80
2019-04-17 09:00:00 8.3 7 Nordeste 23 Nordeste 0 -- -- 81
2019-04-17 08:00:00 8.3 9 Nordeste 24 Nordeste 0 -- -- 80
2019-04-17 07:00:00 8.4 6 Nordeste 18 Nordeste 0 -- -- 79
2019-04-17 06:00:00 8.9 8 Nordeste 26 Este 0 -- -- 77
2019-04-17 05:00:00 8.9 8 Nordeste 22 Este 0 -- -- 78
2019-04-17 04:00:00 9.1 8 Nordeste 24 Nordeste 0 -- -- 78
2019-04-17 03:00:00 9.6 11 Nordeste 25 Nordeste 0 -- -- 77
2019-04-17 02:00:00 8.8 5 Este 16 Nordeste 0 -- -- 76
2019-04-17 01:00:00 4 2 Noroeste 8 Sur 0 -- -- 82
2019-04-17 00:00:00 4.5 4 Sudoeste 8 Sur 0 -- -- 77
2019-04-16 23:00:00 5.5 0 Calma 4 Sur 0 -- -- 72
2019-04-16 22:00:00 7.1 0 Calma 6 Sudoeste 0 -- -- 67
2019-04-16 21:00:00 10.6 0 Calma 14 Este 0 -- -- 57
2019-04-16 20:00:00 15.5 4 Sur 18 Este 0 -- -- 39
2019-04-16 19:00:00 16.3 7 Sur 26 Sudeste 0 -- -- 34
2019-04-16 18:00:00 17.2 9 Sudeste 24 Sudeste 0 -- -- 34
2019-04-16 17:00:00 17.2 14 Sudeste 29 Sudeste 0 -- -- 34
2019-04-16 16:00:00 17.6 8 Sudeste 21 Sudeste 0 -- -- 37
2019-04-16 15:00:00 16.7 9 Este 29 Este 0 -- -- 40
2019-04-16 14:00:00 16 8 Este 17 Nordeste 0 -- -- 44
2019-04-16 13:00:00 15.1 7 Nordeste 23 Norte 0 -- -- 52
2019-04-16 12:00:00 13.2 5 Nordeste 11 Este 0 -- -- 53
2019-04-16 11:00:00 10.9 3 Nordeste 8 Este 0 -- -- 55
2019-04-16 10:00:00 8.9 0 Calma 6 Este 0 -- -- 61
2019-04-16 09:00:00 3.9 3 Sur 6 Sur 0 -- -- 81
2019-04-16 08:00:00 0 3 Oeste 6 Oeste 0 -- -- 94
2019-04-16 07:00:00 0.7 0 Calma 4 Oeste 0 -- -- 92
2019-04-16 06:00:00 2.3 2 Sudoeste 8 Oeste 0 -- -- 88
2019-04-16 05:00:00 4.7 0 Calma 12 Oeste 0 -- -- 83
2019-04-16 04:00:00 5.8 3 Oeste 11 Oeste 0 -- -- 85
2019-04-16 03:00:00 6.7 2 Oeste 19 Oeste 0 -- -- 86
2019-04-16 02:00:00 6.7 6 Oeste 15 Noroeste 0 -- -- 83
2019-04-16 01:00:00 6.2 3 Oeste 14 Sudoeste 0 -- -- 87
2019-04-16 00:00:00 5.9 3 Sudoeste 7 Sudoeste 0 -- -- 91
2019-04-15 23:00:00 5.9 2 Sudoeste 10 Noroeste 0.6 -- -- 89
2019-04-15 22:00:00 7.7 3 Sudoeste 22 Noroeste 0 -- -- 82
2019-04-15 21:00:00 8.6 5 Norte 32 Oeste 0.2 -- -- 73
2019-04-15 20:00:00 9.3 14 Oeste 42 Oeste 0 -- -- 72
2019-04-15 19:00:00 13.4 20 Oeste 46 Oeste 0 -- -- 61
2019-04-15 18:00:00 19.4 10 Sudoeste 32 Oeste 0 -- -- 34
2019-04-15 17:00:00 20.9 11 Sudoeste 35 Oeste 0 -- -- 38
2019-04-15 16:00:00 21.5 9 Sudoeste 33 Noroeste 0 -- -- 40
2019-04-15 15:00:00 17 11 Sur 30 Sudeste 0 -- -- 55
2019-04-15 14:00:00 15.8 10 Sur 28 Sur 0 -- -- 62
2019-04-15 13:00:00 14.5 6 Sur 17 Sudeste 0 -- -- 68
2019-04-15 12:00:00 12.6 2 Noroeste 7 Norte 0 -- -- 74
2019-04-15 11:00:00 12.1 2 Norte 4 Nordeste 0 -- -- 75
2019-04-15 10:00:00 10.8 0 Calma 4 Sur 0 -- -- 82
2019-04-15 09:00:00 8 0 Calma 5 Oeste 0 -- -- 95
2019-04-15 08:00:00 5.1 2 Sudoeste 4 Oeste 0 -- -- 96
2019-04-15 07:00:00 4.7 2 Oeste 5 Noroeste 0 -- -- 94
2019-04-15 06:00:00 5.2 0 Calma 5 Sur 0 -- -- 95
2019-04-15 05:00:00 5 0 Calma 5 Sur 0 -- -- 94
2019-04-15 04:00:00 5.5 2 Sudoeste 4 Sudoeste 0 -- -- 93
2019-04-15 03:00:00 6.3 3 Oeste 6 Sudeste 0 -- -- 90
2019-04-15 02:00:00 6.4 2 Sudoeste 4 Sudoeste 0 -- -- 90
2019-04-15 01:00:00 7.1 0 Calma 4 Oeste 0 -- -- 87
2019-04-15 00:00:00 7.8 0 Calma 4 Oeste 0 -- -- 84
2019-04-14 23:00:00 9.2 0 Calma 4 Oeste 0 -- -- 80
2019-04-14 22:00:00 11.7 3 Sudoeste 9 Sur 0 -- -- 72
2019-04-14 21:00:00 14.2 2 Oeste 11 Oeste 0 -- -- 64
2019-04-14 20:00:00 16.5 4 Noroeste 19 Noroeste 0 -- -- 57
2019-04-14 19:00:00 18.8 5 Noroeste 24 Oeste 0 -- -- 49
2019-04-14 18:00:00 20.6 8 Oeste 23 Oeste 0 -- -- 45
2019-04-14 17:00:00 20.4 9 Noroeste 23 Oeste 0 -- -- 45
2019-04-14 16:00:00 20.1 9 Noroeste 22 Oeste 0 -- -- 45
2019-04-14 15:00:00 20.3 6 Este 23 Norte 0 -- -- 43
2019-04-14 14:00:00 18.8 8 Norte 23 Sudoeste 0 -- -- 44
2019-04-14 13:00:00 17.4 5 Oeste 27 Noroeste 0 -- -- 50
2019-04-14 12:00:00 16.4 10 Oeste 26 Oeste 0 -- -- 55
2019-04-14 11:00:00 14.8 4 Oeste 22 Oeste 0 -- -- 60
2019-04-14 10:00:00 12.1 2 Este 9 Nordeste 0 -- -- 72
2019-04-14 09:00:00 10.8 3 Oeste 10 Oeste 0 -- -- 76
2019-04-14 08:00:00 10.2 2 Noroeste 16 Oeste 0 -- -- 78
2019-04-14 07:00:00 9.7 0 Calma 12 Oeste 0 -- -- 75
2019-04-14 06:00:00 8.7 3 Sudoeste 16 Sudeste 0 -- -- 74
2019-04-14 05:00:00 10 3 Noroeste 15 Noroeste 0 -- -- 68
2019-04-14 04:00:00 10.6 6 Sur 21 Sur 0 -- -- 64
2019-04-14 03:00:00 10.3 8 Sudeste 15 Oeste 0 -- -- 64
2019-04-14 02:00:00 6.6 2 Sudoeste 15 Sudoeste 0 -- -- 68
2019-04-14 01:00:00 4.2 3 Sudoeste 8 Oeste 0 -- -- 63
2019-04-14 00:00:00 5.3 2 Sudoeste 6 Oeste 0 -- -- 59
2019-04-13 23:00:00 6.7 2 Sudoeste 6 Sur 0 -- -- 49
2019-04-13 22:00:00 8.5 0 Calma 5 Sudoeste 0 -- -- 47
2019-04-13 21:00:00 11 3 Sudoeste 8 Oeste 0 -- -- 38
2019-04-13 20:00:00 15.5 2 Sur 13 Oeste 0 -- -- 21
2019-04-13 19:00:00 17.6 6 Noroeste 22 Oeste 0 -- -- 22
2019-04-13 18:00:00 18 5 Noroeste 24 Norte 0 -- -- 25
2019-04-13 17:00:00 18.2 8 Noroeste 20 Noroeste 0 -- -- 23
2019-04-13 16:00:00 18 9 Noroeste 22 Noroeste 0 -- -- 26
2019-04-13 15:00:00 17.9 8 Norte 17 Noroeste 0 -- -- 23
2019-04-13 14:00:00 17.4 4 Este 14 Sudeste 0 -- -- 13
2019-04-13 13:00:00 16.4 5 Nordeste 13 Este 0 -- -- 11
2019-04-13 12:00:00 14.3 4 Nordeste 14 Nordeste 0 -- -- 13
2019-04-13 11:00:00 11.7 4 Nordeste 5 Nordeste 0 -- -- 21
2019-04-13 10:00:00 8 0 Calma 4 Sudeste 0 -- -- 27
2019-04-13 09:00:00 -0.1 0 Calma 4 Oeste 0 -- -- 69
2019-04-13 08:00:00 -4.3 2 Oeste 4 Sudoeste 0 -- -- 75
2019-04-13 07:00:00 -4.3 0 Calma 5 Sudoeste 0 -- -- 81
2019-04-13 06:00:00 -3.9 2 Sudoeste 4 Sudoeste 0 -- -- 77
2019-04-13 05:00:00 -3.2 0 Calma 5 Noroeste 0 -- -- 79
2019-04-13 04:00:00 -2.5 0 Calma 4 Oeste 0 -- -- 80
2019-04-13 03:00:00 -1.2 3 Sudoeste 8 Sudoeste 0 -- -- 78
2019-04-13 02:00:00 -0.5 2 Sudoeste 5 Sudoeste 0 -- -- 79
2019-04-13 01:00:00 0.5 2 Sudoeste 10 Sudoeste 0 -- -- 75
2019-04-13 00:00:00 1.4 3 Sudoeste 12 Sur 0 -- -- 72
2019-04-12 23:00:00 3 5 Sudoeste 13 Sur 0 -- -- 67
2019-04-12 22:00:00 4.7 3 Sur 11 Sur 0 -- -- 63
2019-04-12 21:00:00 8.4 5 Oeste 24 Noroeste 0 -- -- 46
2019-04-12 20:00:00 10.3 6 Noroeste 23 Noroeste 0 -- -- 46
2019-04-12 19:00:00 12.9 9 Noroeste 28 Oeste 0 -- -- 39
2019-04-12 18:00:00 13.5 8 Noroeste 25 Oeste 0 -- -- 38
2019-04-12 17:00:00 13.6 9 Noroeste 24 Oeste 0 -- -- 40
2019-04-12 16:00:00 13.1 8 Noroeste 26 Noroeste 0 -- -- 38
2019-04-12 15:00:00 12.3 9 Noroeste 31 Norte 0 -- -- 43
2019-04-12 14:00:00 11.6 10 Noroeste 30 Noroeste 0 -- -- 45
2019-04-12 13:00:00 11.4 6 Noroeste 24 Oeste 0 -- -- 43
2019-04-12 12:00:00 9.6 10 Noroeste 30 Noroeste 0 -- -- 48
2019-04-12 11:00:00 8.6 8 Noroeste 27 Norte 0.4 -- -- 52
2019-04-12 10:00:00 7.7 4 Noroeste 30 Oeste 0.4 -- -- 57
2019-04-12 09:00:00 5.2 4 Sudoeste 14 Sur 0.2 -- -- 71
2019-04-12 08:00:00 -0.9 3 Sur 12 Sur 0 -- -- 92
2019-04-12 07:00:00 -1 2 Sudoeste 8 Sur 0 -- -- 92
2019-04-12 06:00:00 -1.3 0 Calma 12 Sur 0 -- -- 90
2019-04-12 05:00:00 -1.9 2 Sudoeste 6 Sudoeste 0 -- -- 93
2019-04-12 04:00:00 -1.9 4 Sudoeste 10 Sur 0 -- -- 95
2019-04-12 03:00:00 -2 0 Calma 3 Sudoeste 0 -- -- 94
2019-04-12 02:00:00 -1.4 2 Sudoeste 4 Sur 0 -- -- 92
2019-04-12 01:00:00 -1.6 2 Sudoeste 4 Sudoeste 0 -- -- 92
2019-04-12 00:00:00 -1.2 0 Calma 4 Sudoeste 0 -- -- 90
2019-04-11 23:00:00 0 2 Oeste 10 Sur 0 -- -- 87
2019-04-11 22:00:00 0.9 0 Calma 5 Sur 0 -- -- 85
2019-04-11 21:00:00 3.7 3 Sudoeste 10 Norte 0 -- -- 76
2019-04-11 20:00:00 7.4 5 Norte 18 Noroeste 0 -- -- 57
2019-04-11 19:00:00 9.9 6 Noroeste 21 Oeste 0 -- -- 50
2019-04-11 18:00:00 11 9 Noroeste 28 Noroeste 0 -- -- 47
2019-04-11 17:00:00 10.8 10 Noroeste 30 Oeste 0 -- -- 49
2019-04-11 16:00:00 9.7 10 Oeste 24 Oeste 0 -- -- 46
2019-04-11 15:00:00 9.3 6 Noroeste 23 Norte 0 -- -- 48
2019-04-11 14:00:00 8.8 7 Norte 22 Norte 0 -- -- 52
2019-04-11 13:00:00 8.4 7 Norte 20 Norte 0 -- -- 54
2019-04-11 12:00:00 6.8 6 Norte 15 Nordeste 0 -- -- 59
2019-04-11 11:00:00 5.6 3 Norte 15 Noroeste 0 -- -- 62
2019-04-11 10:00:00 4.6 4 Noroeste 16 Noroeste 0 -- -- 66
2019-04-11 09:00:00 4.2 6 Noroeste 19 Oeste 0 -- -- 67
2019-04-11 08:00:00 0.9 2 Sudeste 16 Oeste 0 -- -- 81
2019-04-11 07:00:00 0.6 2 Sudoeste 17 Noroeste 0 -- -- 82
2019-04-11 06:00:00 0.4 5 Sudeste 13 Oeste 0 -- -- 84
2019-04-11 05:00:00 -1.4 2 Sudoeste 7 Oeste 0 -- -- 92
2019-04-11 04:00:00 0.1 3 Sudeste 10 Sudoeste 0 -- -- 91
2019-04-11 03:00:00 -0.2 2 Sudeste 7 Sudeste 0 -- -- 92
2019-04-11 02:00:00 0.8 2 Sudoeste 5 Sudoeste 0 -- -- 90
2019-04-11 01:00:00 2.8 3 Oeste 7 Nordeste 0 -- -- 85
2019-04-11 00:00:00 4.7 2 Noroeste 14 Oeste 0 -- -- 80
2019-04-10 23:00:00 5.3 3 Norte 19 Oeste 0 -- -- 75
2019-04-10 22:00:00 3.2 0 Calma 12 Nordeste 0 -- -- 85
2019-04-10 21:00:00 5.7 3 Noroeste 18 Norte 0 -- -- 69
2019-04-10 20:00:00 6.9 3 Noroeste 17 Norte 0 -- -- 68
2019-04-10 19:00:00 8.1 5 Noroeste 19 Nordeste 0 -- -- 62
2019-04-10 18:00:00 8.7 7 Nordeste 22 Oeste 0.2 -- -- 67
2019-04-10 17:00:00 8 5 Noroeste 22 Oeste 0 -- -- 65
2019-04-10 16:00:00 8.4 10 Oeste 23 Noroeste 0 -- -- 65
2019-04-10 15:00:00 6.2 7 Oeste 24 Sudoeste 0 -- -- 70
2019-04-10 14:00:00 4.1 5 Oeste 19 Norte 0.2 -- -- 83
2019-04-10 13:00:00 4.1 3 Sudoeste 12 Sur 0 -- -- 85
2019-04-10 12:00:00 3.1 4 Sur 28 Este 0.2 -- -- 82
2019-04-10 11:00:00 3.4 3 Este 25 Sudeste 1.8 -- -- 84
2019-04-10 10:00:00 2.8 7 Sudoeste 34 Oeste 3 -- -- 83
2019-04-10 09:00:00 2.7 11 Oeste 39 Oeste 0.4 -- -- 83
2019-04-10 08:00:00 3 14 Oeste 37 Noroeste 0.6 -- -- 77
2019-04-10 07:00:00 3 14 Noroeste 46 Oeste 0 -- -- 80
2019-04-10 06:00:00 2.8 17 Noroeste 48 Oeste 0 -- -- 85
2019-04-10 05:00:00 2.8 15 Noroeste 43 Oeste 0.4 -- -- 88
2019-04-10 04:00:00 3 15 Oeste 39 Noroeste 1.2 -- -- 86
2019-04-10 03:00:00 3.2 14 Oeste 44 Oeste 1 -- -- 86
2019-04-10 02:00:00 3.2 6 Oeste 48 Oeste 2.2 -- -- 86
2019-04-10 01:00:00 4 10 Oeste 50 Oeste 0.2 -- -- 84
2019-04-10 00:00:00 3.9 15 Oeste 41 Oeste 1 -- -- 86
2019-04-09 23:00:00 4.2 14 Noroeste 35 Norte 0.8 -- -- 83
2019-04-09 22:00:00 4.6 7 Noroeste 40 Oeste 0.8 -- -- 80
2019-04-09 21:00:00 4.5 8 Oeste 41 Oeste 1.8 -- -- 80
2019-04-09 20:00:00 4.3 18 Oeste 41 Noroeste 0.4 -- -- 79
2019-04-09 19:00:00 6.3 15 Oeste 41 Noroeste 0 -- -- 67
2019-04-09 18:00:00 6.7 15 Oeste 42 Noroeste 1.4 -- -- 68
2019-04-09 17:00:00 6.6 13 Oeste 41 Oeste 0.4 -- -- 72
2019-04-09 16:00:00 3.9 9 Oeste 34 Noroeste 1.6 -- -- 83
2019-04-09 15:00:00 4.5 8 Oeste 41 Oeste 1.2 -- -- 83
2019-04-09 14:00:00 4.9 7 Sudoeste 33 Sudoeste 1.2 -- -- 84
2019-04-09 13:00:00 4.9 5 Oeste 24 Noroeste 1 -- -- 84
2019-04-09 12:00:00 5.6 3 Norte 8 Norte 0.2 -- -- 80
2019-04-09 11:00:00 4.7 2 Oeste 14 Noroeste 0.4 -- -- 84
2019-04-09 10:00:00 3.6 2 Sur 7 Noroeste 0.2 -- -- 86
2019-04-09 09:00:00 2.4 2 Sur 12 Oeste 0 -- -- 86
2019-04-09 08:00:00 2.3 0 Calma 13 Oeste 0 -- -- 82
2019-04-09 07:00:00 2.8 2 Sudoeste 15 Sudoeste 0 -- -- 83
2019-04-09 06:00:00 3.1 2 Sudoeste 10 Noroeste 0 -- -- 84
2019-04-09 05:00:00 2.5 2 Sudoeste 8 Sur 0 -- -- 92
2019-04-09 04:00:00 3.1 0 Calma 11 Sur 0 -- -- 90
2019-04-09 03:00:00 3.4 2 Sudoeste 11 Sur 0 -- -- 87
2019-04-09 02:00:00 2.6 2 Sudoeste 6 Sudoeste 0 -- -- 95
2019-04-09 01:00:00 1.6 0 Calma 4 Sudoeste 0 -- -- 94
2019-04-09 00:00:00 2.4 2 Sur 12 Oeste 0 -- -- 92
2019-04-08 23:00:00 3.3 2 Sudoeste 14 Sur 1.4 -- -- 91
2019-04-08 22:00:00 4.3 3 Sudeste 31 Oeste 2.4 -- -- 87
2019-04-08 21:00:00 6.6 3 Sudoeste 13 Sur 0 -- -- 67
2019-04-08 20:00:00 8.2 4 Sudoeste 14 Noroeste 0 -- -- 61
2019-04-08 19:00:00 9.1 4 Oeste 22 Noroeste 0 -- -- 59
2019-04-08 18:00:00 10.8 10 Oeste 30 Oeste 0 -- -- 55
2019-04-08 17:00:00 10.9 6 Oeste 25 Oeste 0 -- -- 56
2019-04-08 16:00:00 11.7 8 Oeste 25 Oeste 0 -- -- 55
2019-04-08 15:00:00 11.3 8 Oeste 21 Oeste 0.2 -- -- 58
2019-04-08 14:00:00 7.8 3 Sudoeste 17 Oeste 0 -- -- 71
2019-04-08 13:00:00 7.4 0 Calma 22 Oeste 0 -- -- 81
2019-04-08 12:00:00 5.9 3 Sudoeste 15 Sudoeste 0 -- -- 85
2019-04-08 11:00:00 4.3 5 Sur 18 Norte 0.4 -- -- 96
2019-04-08 10:00:00 3 2 Sudeste 5 Este 0.8 -- -- 96
2019-04-08 09:00:00 2.5 0 Calma 3 Sudoeste 1.2 -- -- 96
2019-04-08 08:00:00 2.2 2 Oeste 5 Noroeste 1 -- -- 96
2019-04-08 07:00:00 2.2 0 Calma 2 Noroeste 1.2 -- -- 96
2019-04-08 06:00:00 2.2 0 Calma 4 Noroeste 1.2 -- -- 96
2019-04-08 05:00:00 2.2 0 Calma 2 Sudeste 0.2 -- -- 96
2019-04-08 04:00:00 2 0 Calma 2 Oeste 0 -- -- 95
2019-04-08 03:00:00 2 0 Calma 3 Oeste 0 -- -- 95
2019-04-08 02:00:00 1.8 0 Calma 4 Sudeste 0 -- -- 95
2019-04-08 01:00:00 1.7 0 Calma 3 Sudeste 0.8 -- -- 95
2019-04-08 00:00:00 1.6 0 Calma 3 Sudoeste 2.2 -- -- 94
2019-04-07 23:00:00 1.8 0 Calma 5 Sudeste 2.8 -- -- 93
2019-04-07 22:00:00 2.3 0 Calma 3 Sudoeste 1 -- -- 91
2019-04-07 21:00:00 2.8 0 Calma 3 Oeste 0.8 -- -- 90
2019-04-07 20:00:00 3.7 0 Calma 3 Noroeste 1.2 -- -- 88
2019-04-07 19:00:00 4.7 0 Calma 9 Sudeste 0.4 -- -- 76
2019-04-07 18:00:00 5.9 4 Oeste 20 Oeste 0 -- -- 67
2019-04-07 17:00:00 7.8 8 Sudoeste 18 Sudoeste 0 -- -- 53
2019-04-07 16:00:00 8.2 8 Oeste 24 Oeste 0 -- -- 46
2019-04-07 15:00:00 7.3 3 Noroeste 17 Noroeste 0 -- -- 50
2019-04-07 14:00:00 6.8 4 Sur 25 Oeste 1.4 -- -- 51
2019-04-07 13:00:00 6.2 9 Oeste 28 Oeste 4.4 -- -- 51
2019-04-07 12:00:00 3.8 5 Sur 22 Oeste 1.2 -- -- 66
2019-04-07 11:00:00 2 8 Sur 37 Oeste 0.4 -- -- 70
2019-04-07 10:00:00 1.3 9 Este 19 Este 0.2 -- -- 77
2019-04-07 09:00:00 0.9 5 Este 36 Oeste 0.2 -- -- 81
2019-04-07 08:00:00 0.8 8 Oeste 39 Oeste 0.2 -- -- 81
2019-04-07 07:00:00 0.8 15 Oeste 41 Oeste 0 -- -- 85
2019-04-07 06:00:00 0.9 17 Oeste 54 Oeste 0 -- -- 85
2019-04-07 05:00:00 0.8 10 Oeste 48 Oeste 0 -- -- 88
2019-04-07 04:00:00 0.8 14 Oeste 40 Oeste 0.2 -- -- 88
2019-04-07 03:00:00 1.3 13 Oeste 42 Noroeste 0.4 -- -- 83
2019-04-07 02:00:00 1.8 18 Oeste 57 Oeste 0.2 -- -- 79
2019-04-07 01:00:00 1.9 27 Oeste 60 Oeste 0.6 -- -- 79
2019-04-07 00:00:00 1.8 17 Oeste 53 Oeste 0.6 -- -- 83
2019-04-06 23:00:00 2.1 23 Oeste 62 Oeste 0.6 -- -- 81
2019-04-06 22:00:00 1.8 27 Oeste 68 Noroeste 0.2 -- -- 83
2019-04-06 21:00:00 2.8 25 Oeste 57 Noroeste 0 -- -- 74
2019-04-06 20:00:00 3.1 25 Oeste 53 Noroeste 0.4 -- -- 66
2019-04-06 19:00:00 2.3 22 Oeste 55 Oeste 0.4 -- -- 80
2019-04-06 18:00:00 2.1 21 Oeste 50 Oeste 0.8 -- -- 80
2019-04-06 17:00:00 4.7 26 Oeste 54 Oeste 0 -- -- 68
2019-04-06 16:00:00 5 19 Oeste 46 Oeste 0.6 -- -- 70
2019-04-06 15:00:00 3.5 18 Oeste 45 Oeste 0.8 -- -- 78
2019-04-06 14:00:00 3.5 16 Oeste 41 Sudoeste 1 -- -- 77
2019-04-06 13:00:00 4.8 20 Oeste 52 Oeste 0.8 -- -- 68
2019-04-06 12:00:00 2.8 10 Oeste 39 Oeste 2.2 -- -- 80
2019-04-06 11:00:00 3.5 12 Oeste 35 Oeste 0.6 -- -- 68
2019-04-06 10:00:00 2.1 9 Oeste 33 Oeste 0 -- -- 75
2019-04-06 09:00:00 1.4 8 Oeste 32 Noroeste 0 -- -- 78
2019-04-06 08:00:00 0.4 8 Oeste 25 Oeste 0.2 -- -- 85
2019-04-06 07:00:00 0.1 10 Oeste 29 Oeste 0 -- -- 79
2019-04-06 06:00:00 0.2 3 Sur 22 Sur 0 -- -- 83
2019-04-06 05:00:00 0.6 9 Sudoeste 31 Oeste 0.2 -- -- 82
2019-04-06 04:00:00 0.5 6 Sudoeste 28 Oeste 0.2 -- -- 80
2019-04-06 03:00:00 0.6 7 Sudeste 32 Sudoeste 0.2 -- -- 86
2019-04-06 02:00:00 0.9 5 Sudoeste 26 Sudoeste 0.2 -- -- 84
2019-04-06 01:00:00 0.9 4 Oeste 12 Oeste 0 -- -- 86
2019-04-06 00:00:00 0.8 0 Calma 17 Oeste 0 -- -- 85
2019-04-05 23:00:00 0.4 0 Calma 14 Oeste 0.2 -- -- 92
2019-04-05 22:00:00 -0.6 0 Calma -- -- 0 -- -- 92
2019-04-05 21:00:00 0.3 0 Calma 18 Sudeste 0.2 -- -- 91
2019-04-05 20:00:00 0.8 0 Calma 4 Sudeste 0.2 -- -- 85
2019-04-05 19:00:00 0.6 0 Calma 20 Oeste 0.2 -- -- 90
2019-04-05 18:00:00 2.4 4 Sur 13 Sudoeste 0 -- -- 83
2019-04-05 17:00:00 4 4 Noroeste 24 Noroeste 0 -- -- 67
2019-04-05 16:00:00 4.9 4 Este 11 Nordeste 0.2 -- -- 79
2019-04-05 15:00:00 1.7 3 Sudeste 13 Sur 1 -- -- 85
2019-04-05 14:00:00 0.8 5 Oeste 30 Oeste 0.4 -- -- 87
2019-04-05 13:00:00 5 3 Sudoeste 13 Sudeste 0 -- -- 76
2019-04-05 12:00:00 5.9 3 Nordeste 8 Este 0.2 -- -- 72
2019-04-05 11:00:00 2.7 0 Calma 3 Oeste 0 -- -- 87
2019-04-05 10:00:00 1.7 0 Calma 2 Oeste 0.6 -- -- 93
2019-04-05 09:00:00 1 0 Calma 4 Sudeste 0.2 -- -- 94
2019-04-05 08:00:00 0.7 0 Calma 5 Sudeste 0 -- -- 94
2019-04-05 07:00:00 0.5 0 Calma 2 Oeste 0 -- -- 93
2019-04-05 06:00:00 1.2 0 Calma 6 Nordeste 0 -- -- 90
2019-04-05 05:00:00 2.3 3 Nordeste 8 Este 0 -- -- 86
2019-04-05 04:00:00 2.8 2 Norte 10 Nordeste 0 -- -- 81
2019-04-05 03:00:00 3.7 5 Sur 19 Sudeste 0 -- -- 68
2019-04-05 02:00:00 3.6 4 Sur 15 Sudeste 0 -- -- 68
2019-04-05 01:00:00 4.2 0 Calma 18 Sur 0 -- -- 62
2019-04-05 00:00:00 3.6 2 Noroeste 4 Norte 0 -- -- 55
2019-04-04 23:00:00 4.3 0 Calma 10 Noroeste 0 -- -- 48
2019-04-04 22:00:00 5.3 4 Oeste 16 Oeste 0 -- -- 42
2019-04-04 21:00:00 6.1 4 Oeste 15 Sudeste 0 -- -- 40
2019-04-04 20:00:00 7.9 4 Sudoeste 20 Sudoeste 0 -- -- 34
2019-04-04 19:00:00 9.3 7 Sur 17 Sur 0 -- -- 31
2019-04-04 18:00:00 9.5 5 Sudoeste 22 Sudoeste 0 -- -- 33
2019-04-04 17:00:00 11.7 5 Sudoeste 23 Oeste 0 -- -- 28
2019-04-04 16:00:00 10.4 10 Oeste 33 Noroeste 0 -- -- 28
2019-04-04 15:00:00 10.7 10 Oeste 26 Sudoeste 0 -- -- 29
2019-04-04 14:00:00 10.1 6 Oeste 17 Oeste 0 -- -- 27
2019-04-04 13:00:00 8.5 5 Nordeste 18 Sur 0 -- -- 27
2019-04-04 12:00:00 6.7 5 Sudeste 12 Sur 0 -- -- 34
2019-04-04 11:00:00 4.4 5 Nordeste 12 Sudeste 0 -- -- 42
2019-04-04 10:00:00 2.2 2 Noroeste 13 Sur 0 -- -- 50
2019-04-04 09:00:00 0.3 4 Sur 13 Sur 0 -- -- 60
2019-04-04 08:00:00 -2.7 3 Sudeste 14 Oeste 0 -- -- 73
2019-04-04 07:00:00 -2 2 Norte 21 Oeste 0 -- -- 72
2019-04-04 06:00:00 -1.9 5 Oeste 26 Oeste 0 -- -- 71
2019-04-04 05:00:00 -1.5 6 Noroeste 30 Noroeste 0 -- -- 68
2019-04-04 04:00:00 -0.9 4 Oeste 18 Oeste 0 -- -- 64
2019-04-04 03:00:00 -0.3 5 Noroeste 21 Noroeste 0 -- -- 61
2019-04-04 02:00:00 0.3 3 Norte 21 Noroeste 0 -- -- 59
2019-04-04 01:00:00 1.2 3 Noroeste 22 Noroeste 0 -- -- 54
2019-04-04 00:00:00 2 6 Norte 26 Noroeste 0 -- -- 49
2019-04-03 23:00:00 3 5 Noroeste 25 Norte 0 -- -- 47
2019-04-03 22:00:00 3.8 5 Noroeste 29 Norte 0 -- -- 49
2019-04-03 21:00:00 4.2 6 Noroeste 26 Noroeste 0 -- -- 51
2019-04-03 20:00:00 5.9 8 Noroeste 44 Oeste 0 -- -- 37
2019-04-03 19:00:00 7.5 18 Oeste 46 Noroeste 0 -- -- 30
2019-04-03 18:00:00 8.1 13 Noroeste 49 Noroeste 0 -- -- 33
2019-04-03 17:00:00 9.4 15 Noroeste 39 Noroeste 0 -- -- 33
2019-04-03 16:00:00 8.7 10 Noroeste 28 Noroeste 0 -- -- 42
2019-04-03 15:00:00 7.9 11 Noroeste 33 Oeste 0 -- -- 50
2019-04-03 14:00:00 4.5 10 Noroeste 28 Oeste 0 -- -- 67
2019-04-03 13:00:00 4.7 9 Noroeste 25 Noroeste 0 -- -- 70
2019-04-03 12:00:00 5 3 Este 23 Sudeste 0 -- -- 66
2019-04-03 11:00:00 5 6 Oeste 22 Sudoeste 0 -- -- 71
2019-04-03 10:00:00 4.3 4 Oeste 24 Oeste 0 -- -- 76
2019-04-03 09:00:00 4.9 6 Noroeste 21 Noroeste 0 -- -- 72
2019-04-03 08:00:00 1.9 3 Norte 10 Noroeste 0 -- -- 80
2019-04-03 07:00:00 1.1 0 Calma 5 Sudoeste 0 -- -- 81
2019-04-03 06:00:00 2.8 2 Norte 21 Oeste 0 -- -- 73
2019-04-03 05:00:00 2.1 2 Oeste 7 Oeste 0 -- -- 76
2019-04-03 04:00:00 2.8 0 Calma 6 Oeste 0 -- -- 74
2019-04-03 03:00:00 3.3 0 Calma 8 Sudoeste 0 -- -- 68
2019-04-03 02:00:00 5.2 3 Oeste 13 Sudoeste 0 -- -- 59
2019-04-03 01:00:00 8.4 5 Sudoeste 28 Noroeste 0 -- -- 45
2019-04-03 00:00:00 9.5 5 Sudoeste 22 Oeste 0.2 -- -- 39
2019-04-02 23:00:00 10.3 6 Oeste 22 Sudoeste 0 -- -- 38
2019-04-02 22:00:00 10.5 4 Oeste 18 Oeste 0 -- -- 40
2019-04-02 21:00:00 11.6 5 Oeste 28 Oeste 0 -- -- 40
2019-04-02 20:00:00 12.4 5 Oeste 19 Oeste 0 -- -- 40
2019-04-02 19:00:00 12.6 10 Oeste 37 Oeste 0 -- -- 44
2019-04-02 18:00:00 15.6 7 Oeste 33 Oeste 0 -- -- 40
2019-04-02 17:00:00 14.6 6 Noroeste 21 Noroeste 0 -- -- 43
2019-04-02 16:00:00 13.9 7 Oeste 19 Oeste 0 -- -- 45
2019-04-02 15:00:00 12.7 3 Sudoeste 14 Sudeste 0 -- -- 50
2019-04-02 14:00:00 11.6 5 Sur 30 Oeste 0 -- -- 59
2019-04-02 13:00:00 12.9 4 Sur 19 Oeste 0 -- -- 48
2019-04-02 12:00:00 13.3 6 Noroeste 18 Oeste 0 -- -- 53
2019-04-02 11:00:00 10.9 3 Este 5 Este 0 -- -- 56
2019-04-02 10:00:00 6.7 0 Calma 4 Sur 0 -- -- 85
2019-04-02 09:00:00 3.8 0 Calma 5 Oeste 0 -- -- 93
2019-04-02 08:00:00 3 0 Calma 4 Sur 0 -- -- 93
2019-04-02 07:00:00 2.1 0 Calma 6 Sur 0 -- -- 94
2019-04-02 06:00:00 2.6 0 Calma 5 Oeste 0 -- -- 94
2019-04-02 05:00:00 2.5 2 Sudoeste 8 Oeste 0 -- -- 93
2019-04-02 04:00:00 3.3 2 Sudoeste 6 Oeste 0 -- -- 91
2019-04-02 03:00:00 4.5 3 Sudoeste 8 Oeste 0 -- -- 87
2019-04-02 02:00:00 5.8 0 Calma 8 Sur 0 -- -- 88
2019-04-02 01:00:00 5.6 0 Calma 6 Oeste 0 -- -- 87
2019-04-02 00:00:00 6.1 0 Calma 4 Sur 0 -- -- 86
2019-04-01 23:00:00 6.3 0 Calma 4 Oeste 0 -- -- 85
2019-04-01 22:00:00 6.7 0 Calma 9 Sur 0 -- -- 84
2019-04-01 21:00:00 8.2 3 Sudoeste 12 Sudoeste 0 -- -- 76
2019-04-01 20:00:00 9.7 4 Sudeste 7 Sudeste 0.2 -- -- 71
2019-04-01 19:00:00 11.3 0 Calma 5 Oeste 0 -- -- 67
2019-04-01 18:00:00 12.1 0 Calma 8 Norte 0 -- -- 58
2019-04-01 17:00:00 12.3 4 Norte 11 Nordeste 0 -- -- 58
2019-04-01 16:00:00 11.8 4 Nordeste 8 Norte 0 -- -- 61
2019-04-01 15:00:00 11 4 Oeste 9 Sudeste 0 -- -- 63
2019-04-01 14:00:00 10 3 Sudoeste 8 Sur 0 -- -- 71
2019-04-01 13:00:00 9.5 3 Sudoeste 7 Oeste 0 -- -- 72
2019-04-01 12:00:00 9 2 Este 11 Este 0 -- -- 73
2019-04-01 11:00:00 8.3 4 Nordeste 11 Nordeste 0 -- -- 77
2019-04-01 10:00:00 6.5 0 Calma 4 Nordeste 0.2 -- -- 88
2019-04-01 09:00:00 5.2 0 Calma 2 Sur 0 -- -- 95
2019-04-01 08:00:00 5 0 Calma 3 Sur 0 -- -- 95
2019-04-01 07:00:00 5 0 Calma 2 Este 0 -- -- 95
2019-04-01 06:00:00 5 0 Calma 2 Este 0 -- -- 95
2019-04-01 05:00:00 4.9 0 Calma 0 Calma 0 -- -- 94
2019-04-01 04:00:00 4.9 0 Calma 2 Nordeste 0 -- -- 94
2019-04-01 03:00:00 5 0 Calma 4 Este 0 -- -- 94
2019-04-01 02:00:00 5 0 Calma 4 Nordeste 0.2 -- -- 94
2019-04-01 01:00:00 5.1 0 Calma 6 Nordeste 0 -- -- 92
2019-04-01 00:00:00 5.3 3 Norte 9 Noroeste 0 -- -- 91
2019-03-31 23:00:00 5.6 4 Norte 12 Nordeste 0 -- -- 91
2019-03-31 22:00:00 6 6 Nordeste 13 Norte 0 -- -- 89
2019-03-31 21:00:00 6.7 3 Nordeste 10 Norte 0.2 -- -- 87
2019-03-31 20:00:00 7.3 0 Calma 12 Nordeste 0.2 -- -- 87
2019-03-31 19:00:00 8.1 5 Nordeste 13 Norte 0 -- -- 82
2019-03-31 18:00:00 9.7 4 Nordeste 15 Este 0 -- -- 69
2019-03-31 17:00:00 10.4 4 Nordeste 14 Nordeste 0 -- -- 62
2019-03-31 16:00:00 10.4 5 Nordeste 15 Nordeste 0 -- -- 61
2019-03-31 15:00:00 10.3 4 Nordeste 14 Sudeste 0 -- -- 65
2019-03-31 14:00:00 10.8 3 Sudeste 6 Este 0 -- -- 56
2019-03-31 13:00:00 11 0 Calma 10 Nordeste 0 -- -- 54
2019-03-31 12:00:00 11.3 4 Nordeste 9 Nordeste 0 -- -- 53
2019-03-31 11:00:00 8.7 4 Sudeste 9 Sudeste 0 -- -- 57
2019-03-31 10:00:00 5.8 2 Nordeste 6 Sudoeste 0 -- -- 72
2019-03-31 09:00:00 1 0 Calma 4 Sur 0 -- -- 88
2019-03-31 08:00:00 -0.9 0 Calma 3 Oeste 0 -- -- 86
2019-03-31 07:00:00 -0.6 0 Calma 3 Noroeste 0 -- -- 85
2019-03-31 06:00:00 -0.8 2 Sudoeste 3 Sudoeste 0 -- -- 83
2019-03-31 05:00:00 -0.2 2 Sudoeste 3 Sudoeste 0 -- -- 79
2019-03-31 03:00:00 0.1 0 Calma 4 Sur 0 -- -- 74
2019-03-31 01:00:00 1.7 0 Calma 14 Oeste 0 -- -- 68
2019-03-31 00:00:00 2 3 Oeste 6 Sur 0 -- -- 68
2019-03-30 23:00:00 3.1 2 Sudoeste 4 Oeste 0 -- -- 65
2019-03-30 22:00:00 5.5 0 Calma 4 Sudoeste 0 -- -- 61
2019-03-30 21:00:00 7.9 2 Sudoeste 3 Oeste 0 -- -- 56
2019-03-30 20:00:00 9.6 0 Calma 5 Oeste 0 -- -- 52
2019-03-30 19:00:00 11.8 2 Sudoeste 13 Sur 0 -- -- 42
2019-03-30 18:00:00 13.8 3 Nordeste 11 Nordeste 0 -- -- 36
2019-03-30 17:00:00 13.8 2 Nordeste 14 Sudeste 0 -- -- 37
2019-03-30 16:00:00 13.9 4 Sur 17 Sudeste 0 -- -- 37
2019-03-30 15:00:00 13.8 6 Nordeste 17 Este 0 -- -- 37
2019-03-30 14:00:00 15.5 9 Nordeste 21 Este 0 -- -- 33
2019-03-30 13:00:00 14.5 7 Nordeste 20 Este 0 -- -- 36
2019-03-30 12:00:00 12.6 5 Nordeste 13 Nordeste 0 -- -- 39
2019-03-30 11:00:00 10.4 4 Nordeste 12 Nordeste 0 -- -- 46
2019-03-30 10:00:00 7.5 4 Nordeste 9 Este 0 -- -- 57
2019-03-30 09:00:00 4.6 3 Sudeste 4 Este 0 -- -- 69
2019-03-30 08:00:00 -1.3 0 Calma 3 Sudoeste 0 -- -- 92
2019-03-30 07:00:00 -3 0 Calma 3 Sudoeste 0 -- -- 92
2019-03-30 06:00:00 -2.8 0 Calma 4 Sudoeste 0 -- -- 91
2019-03-30 05:00:00 -2.5 0 Calma 4 Sudoeste 0 -- -- 89
2019-03-30 04:00:00 -2.1 0 Calma 3 Sudoeste 0 -- -- 88
2019-03-30 03:00:00 -1.8 0 Calma 3 Sudoeste 0 -- -- 84
2019-03-30 02:00:00 -0.3 0 Calma 6 Sur 0 -- -- 80
2019-03-30 01:00:00 0.2 2 Sudoeste 7 Sur 0 -- -- 77
2019-03-30 00:00:00 0 0 Calma 7 Sur 0 -- -- 74
2019-03-29 23:00:00 0.7 0 Calma 4 Sudoeste 0 -- -- 71
2019-03-29 22:00:00 1.5 0 Calma 3 Oeste 0 -- -- 65
2019-03-29 21:00:00 3 0 Calma 6 Sur 0 -- -- 57
2019-03-29 20:00:00 5.9 0 Calma 10 Sudeste 0 -- -- 46
2019-03-29 19:00:00 11.2 6 Sudeste 17 Sudeste 0 -- -- 29
2019-03-29 18:00:00 13.5 9 Sudeste 22 Sudeste 0 -- -- 26
2019-03-29 17:00:00 14.4 9 Este 24 Sur 0 -- -- 25
2019-03-29 16:00:00 14.9 6 Sur 27 Sudeste 0 -- -- 24
2019-03-29 15:00:00 14 9 Sudeste 22 Sudeste 0 -- -- 26
2019-03-29 14:00:00 13.6 11 Sudeste 26 Sudeste 0 -- -- 28
2019-03-29 13:00:00 13.1 11 Sudeste 23 Sudeste 0 -- -- 30
2019-03-29 12:00:00 12.7 8 Este 20 Sudeste 0 -- -- 30
2019-03-29 11:00:00 10.7 5 Norte 14 Norte 0 -- -- 35
2019-03-29 10:00:00 7.7 4 Nordeste 8 Este 0 -- -- 42
2019-03-29 09:00:00 4.5 0 Calma 4 Este 0 -- -- 53
2019-03-29 08:00:00 -1.8 2 Sudoeste 3 Oeste 0 -- -- 75
2019-03-29 07:00:00 -3.7 0 Calma 3 Oeste 0 -- -- 80
2019-03-29 06:00:00 -3.5 2 Sudoeste -- -- 0 -- -- 78
2019-03-29 05:00:00 -3.2 0 Calma 3 Sudoeste 0 -- -- 77
2019-03-29 04:00:00 -3 0 Calma 5 Sur 0 -- -- 75
2019-03-29 03:00:00 -2.5 0 Calma 4 Sur 0 -- -- 73
2019-03-29 02:00:00 -1.6 0 Calma 6 Sur 0 -- -- 69
2019-03-29 01:00:00 -0.8 3 Sudoeste 5 Sur 0 -- -- 66
2019-03-29 00:00:00 -0.2 2 Sudoeste 4 Oeste 0 -- -- 64
2019-03-28 23:00:00 1 2 Sudoeste 5 Sudoeste 0 -- -- 60
2019-03-28 22:00:00 2.4 2 Sudoeste 5 Oeste 0 -- -- 55
2019-03-28 21:00:00 3.8 2 Sudoeste 5 Sudoeste 0 -- -- 51
2019-03-28 20:00:00 7 0 Calma 6 Sur 0 -- -- 44
2019-03-28 19:00:00 12.9 4 Sur 17 Este 0 -- -- 28
2019-03-28 18:00:00 17 4 Este 19 Este 0 -- -- 20
2019-03-28 17:00:00 17.8 3 Este 15 Nordeste 0 -- -- 19
2019-03-28 16:00:00 17.3 6 Nordeste 15 Nordeste 0 -- -- 18
2019-03-28 15:00:00 16.9 4 Nordeste 21 Nordeste 0 -- -- 21
2019-03-28 14:00:00 15.8 9 Nordeste 23 Norte 0 -- -- 24
2019-03-28 13:00:00 14.7 6 Nordeste 20 Este 0 -- -- 27
2019-03-28 12:00:00 13.2 6 Nordeste 14 Nordeste 0 -- -- 29
2019-03-28 11:00:00 11.5 3 Sudeste 11 Este 0 -- -- 26
2019-03-28 10:00:00 8.6 3 Nordeste 6 Nordeste 0 -- -- 35
2019-03-28 09:00:00 4.9 2 Sudeste 5 Este 0 -- -- 45
2019-03-28 08:00:00 -2.2 2 Sudoeste 3 Sudoeste 0 -- -- 69
2019-03-28 07:00:00 -3.8 2 Sudoeste 4 Sudoeste 0 -- -- 72
2019-03-28 06:00:00 -3.1 2 Sudoeste 4 Sudoeste 0 -- -- 69
2019-03-28 05:00:00 -2.5 0 Calma 5 Sudoeste 0 -- -- 68
2019-03-28 04:00:00 -2.2 2 Oeste 4 Oeste 0 -- -- 66
2019-03-28 03:00:00 -2.5 0 Calma 5 Sudeste 0 -- -- 68
2019-03-28 02:00:00 -1.6 2 Sudoeste 5 Sudeste 0 -- -- 64
2019-03-28 01:00:00 -0.5 2 Sudoeste 5 Sur 0 -- -- 59
2019-03-28 00:00:00 0.4 2 Sudoeste 3 Sudoeste 0 -- -- 56
2019-03-27 23:00:00 1.7 2 Sudoeste 4 Sudoeste 0 -- -- 53
2019-03-27 22:00:00 2.3 2 Sudoeste 5 Sudoeste 0 -- -- 51
2019-03-27 21:00:00 4.7 2 Oeste 8 Sudoeste 0 -- -- 43
2019-03-27 20:00:00 7.2 2 Sudoeste 6 Sur 0 -- -- 38
2019-03-27 19:00:00 13.1 2 Norte 14 Norte 0 -- -- 21
2019-03-27 18:00:00 17.2 5 Nordeste 24 Nordeste 0 -- -- 17
2019-03-27 17:00:00 17.8 5 Nordeste 17 Nordeste 0 -- -- 18
2019-03-27 16:00:00 17.6 7 Nordeste 21 Nordeste 0 -- -- 20
2019-03-27 15:00:00 17.3 8 Este 21 Sudeste 0 -- -- 19
2019-03-27 14:00:00 16.3 8 Nordeste 21 Este 0 -- -- 19
2019-03-27 13:00:00 15.4 8 Este 18 Este 0 -- -- 18
2019-03-27 12:00:00 13.7 5 Norte 14 Nordeste 0 -- -- 20
2019-03-27 11:00:00 11.8 6 Este 12 Norte 0 -- -- 24
2019-03-27 10:00:00 9.4 2 Este 6 Nordeste 0 -- -- 26
2019-03-27 09:00:00 5 0 Calma 3 Sur 0 -- -- 34
2019-03-27 08:00:00 -2.5 0 Calma 3 Oeste 0 -- -- 60
2019-03-27 07:00:00 -4.2 0 Calma 4 Oeste 0 -- -- 63
2019-03-27 06:00:00 -3.8 2 Sudoeste 4 Sudoeste 0 -- -- 62
2019-03-27 05:00:00 -3.4 3 Sudoeste 4 Sudoeste 0 -- -- 61
2019-03-27 04:00:00 -3 0 Calma 3 Sudoeste 0 -- -- 60
2019-03-27 03:00:00 -2.7 2 Sudoeste 4 Sudoeste 0 -- -- 57
2019-03-27 02:00:00 -2.2 3 Sudoeste 4 Oeste 0 -- -- 55
2019-03-27 01:00:00 -1.5 0 Calma 5 Sudoeste 0 -- -- 55
2019-03-27 00:00:00 -0.6 2 Sudoeste 9 Sudeste 0 -- -- 55
2019-03-26 23:00:00 0.4 3 Sur 5 Oeste 0 -- -- 52
2019-03-26 22:00:00 1.4 2 Sudoeste 5 Sudoeste 0 -- -- 51
2019-03-26 21:00:00 3.6 2 Sudoeste 7 Oeste 0 -- -- 45
2019-03-26 20:00:00 7.1 0 Calma 12 Sudeste 0 -- -- 38
2019-03-26 19:00:00 13.4 5 Sudeste 22 Este 0 -- -- 18
2019-03-26 18:00:00 16.6 8 Este 23 Este 0 -- -- 16
2019-03-26 17:00:00 17.4 10 Este 28 Este 0 -- -- 12
2019-03-26 16:00:00 18 10 Nordeste 31 Este 0 -- -- 17
2019-03-26 15:00:00 17.5 9 Sudeste 27 Sudeste 0 -- -- 19
2019-03-26 14:00:00 17.4 11 Nordeste 29 Este 0 -- -- 21
2019-03-26 13:00:00 16.3 9 Nordeste 24 Nordeste 0 -- -- 20
2019-03-26 12:00:00 14.6 6 Nordeste 15 Este 0 -- -- 21
2019-03-26 11:00:00 12.7 6 Este 14 Este 0 -- -- 23
2019-03-26 10:00:00 9.3 3 Nordeste 6 Nordeste 0 -- -- 35
2019-03-26 09:00:00 5 0 Calma 4 Oeste 0 -- -- 45
2019-03-26 08:00:00 -2 0 Calma 4 Sudoeste 0 -- -- 74
2019-03-26 07:00:00 -3.6 2 Oeste 4 Sudoeste 0 -- -- 75
2019-03-26 06:00:00 -3.4 2 Sudoeste 4 Sudoeste 0 -- -- 73
2019-03-26 05:00:00 -2.8 0 Calma 4 Oeste 0 -- -- 71
2019-03-26 04:00:00 -2.5 3 Sudoeste 5 Sudoeste 0 -- -- 70
2019-03-26 03:00:00 -2 2 Sudoeste 5 Sudoeste 0 -- -- 73
2019-03-26 02:00:00 -1.3 0 Calma 4 Sudoeste 0 -- -- 75
2019-03-26 01:00:00 -0.3 0 Calma 4 Oeste 0 -- -- 74
2019-03-26 00:00:00 1.1 2 Sudoeste 5 Sudoeste 0 -- -- 72
2019-03-25 23:00:00 1.6 0 Calma 4 Sudoeste 0 -- -- 71
2019-03-25 22:00:00 2.7 2 Sudoeste 4 Oeste 0 -- -- 67
2019-03-25 21:00:00 5 0 Calma 4 Sur 0 -- -- 60
2019-03-25 20:00:00 8.4 2 Sudoeste 8 Oeste 0 -- -- 50
2019-03-25 19:00:00 13 2 Noroeste 21 Nordeste 0 -- -- 37
2019-03-25 18:00:00 16.3 9 Norte 25 Norte 0 -- -- 26
2019-03-25 17:00:00 18 8 Norte 21 Nordeste 0 -- -- 24
2019-03-25 16:00:00 18.7 5 Nordeste 19 Nordeste 0 -- -- 24
2019-03-25 15:00:00 17.5 8 Nordeste 24 Norte 0 -- -- 25
2019-03-25 14:00:00 17.8 8 Norte 20 Norte 0 -- -- 27
2019-03-25 13:00:00 17.8 8 Nordeste 21 Noroeste 0 -- -- 23
2019-03-25 12:00:00 16.7 6 Norte 26 Este 0 -- -- 31
2019-03-25 11:00:00 15.6 4 Sudeste 9 Nordeste 0 -- -- 33
2019-03-25 10:00:00 11.6 3 Nordeste 5 Norte 0 -- -- 43
2019-03-25 09:00:00 7.3 0 Calma 2 Este 0 -- -- 51
2019-03-25 08:00:00 0 0 Calma 3 Sudoeste 0 -- -- 81
2019-03-25 07:00:00 -1.5 0 Calma 4 Sudoeste 0 -- -- 83
2019-03-25 06:00:00 -0.9 2 Sudoeste 3 Sudoeste 0 -- -- 81
2019-03-25 05:00:00 -0.5 0 Calma 3 Sudoeste 0 -- -- 79
2019-03-25 04:00:00 -0.2 2 Sudoeste 4 Sudoeste 0 -- -- 77
2019-03-25 03:00:00 0.5 2 Oeste 4 Oeste 0 -- -- 73
2019-03-25 02:00:00 1.1 2 Sudoeste 4 Sudoeste 0 -- -- 69
2019-03-25 01:00:00 0.7 3 Sudoeste 5 Sudoeste 0 -- -- 68
2019-03-25 00:00:00 1.8 0 Calma 7 Oeste 0 -- -- 65